Strona główna
METAR-TAF:

METAR-TAF

Lotnisko :

Mataram, Indonezja

Szerokość geograficzna: 08-45-29S, Długość geograficzna: 116-16-35E, wysokość: 97 m

Aktualna obserwacja pogody

Raport powstał 37 minut temu, godzina 22:00 UTC
Wiatr 3 kt od północ
Temperatura 25°C
Wilgotność 100%
Ciśnienie 1012 hPa
Widzialność: 6000 m
Rozproszone chmury na wysokości 1600 ft

METAR: WADL 102200Z 36003KT 6000 SCT016 25/25 Q1012 NOSIG

czas: 05:37 (22:37 UTC)

Prognoza

Raport powstał 11 godziny i 37 minut temu, godzina 11:00 UTC
Prognoza ważna od 10 godzina 12 UTC do 11 godzina 12 UTC
Wiatr kt od północ
Widzialność: 7000 m
Przerywane chmury na wysokości 1600 ft

TAF: WADL 101100Z 1012/1112 00000KT 7000 BKN016

Obserwacja i prognoza pogody dla ponad 4000 lotnisk (raport METAR i TAF).

Dostępne stacje oznaczono żółtymi i czerwonymi punktami na mapie.

Najedź kursorem aby zobaczyć nazwę stacji.

Kliknij aby zobaczyć obserwacje i prognozy pogody.

Aby zmienić mapę: kliknij na zielony przycisk z czarnym krzyżykiem, aby powiększyć; na zielony przycisk z myślnikiem, aby pomniejszyć; na zielone strzałki, aby przejść do map sąsiednich.


METAR-TAF: